sensor_id;sensor_type;location;lat;lon;timestamp;temperature;humidity
21627;DHT22;10975;47.872;12.972;2023-08-31T00:01:02;12.50;99.90
21627;DHT22;10975;47.872;12.972;2023-08-31T00:03:31;12.50;99.90
21627;DHT22;10975;47.872;12.972;2023-08-31T00:06:00;12.50;99.90
21627;DHT22;10975;47.872;12.972;2023-08-31T00:08:27;12.60;99.90
21627;DHT22;10975;47.872;12.972;2023-08-31T00:10:55;12.70;99.90
21627;DHT22;10975;47.872;12.972;2023-08-31T00:13:22;12.70;99.90
21627;DHT22;10975;47.872;12.972;2023-08-31T00:15:49;12.80;99.90
21627;DHT22;10975;47.872;12.972;2023-08-31T00:18:16;12.90;99.90
21627;DHT22;10975;47.872;12.972;2023-08-31T00:20:43;13.00;99.90
21627;DHT22;10975;47.872;12.972;2023-08-31T00:23:09;13.10;99.90
21627;DHT22;10975;47.872;12.972;2023-08-31T00:25:37;13.10;99.90
21627;DHT22;10975;47.872;12.972;2023-08-31T00:28:04;13.10;99.90
21627;DHT22;10975;47.872;12.972;2023-08-31T00:30:31;13.20;99.90
21627;DHT22;10975;47.872;12.972;2023-08-31T00:32:58;13.10;99.90
21627;DHT22;10975;47.872;12.972;2023-08-31T00:35:28;13.10;99.90
21627;DHT22;10975;47.872;12.972;2023-08-31T00:37:55;13.20;99.90
21627;DHT22;10975;47.872;12.972;2023-08-31T00:40:25;13.20;99.90
21627;DHT22;10975;47.872;12.972;2023-08-31T00:42:52;13.20;99.90
21627;DHT22;10975;47.872;12.972;2023-08-31T00:45:19;13.30;99.90
21627;DHT22;10975;47.872;12.972;2023-08-31T00:47:46;13.30;99.90
21627;DHT22;10975;47.872;12.972;2023-08-31T00:50:16;13.30;99.90
21627;DHT22;10975;47.872;12.972;2023-08-31T00:52:43;13.30;99.90
21627;DHT22;10975;47.872;12.972;2023-08-31T00:55:14;13.40;99.90
21627;DHT22;10975;47.872;12.972;2023-08-31T00:57:44;13.30;99.90
21627;DHT22;10975;47.872;12.972;2023-08-31T01:00:17;13.40;99.90
21627;DHT22;10975;47.872;12.972;2023-08-31T01:02:49;13.40;99.90
21627;DHT22;10975;47.872;12.972;2023-08-31T01:07:53;13.40;99.90
21627;DHT22;10975;47.872;12.972;2023-08-31T01:10:27;13.40;99.90
21627;DHT22;10975;47.872;12.972;2023-08-31T01:13:18;13.40;99.90
21627;DHT22;10975;47.872;12.972;2023-08-31T01:15:46;13.40;99.90
21627;DHT22;10975;47.872;12.972;2023-08-31T01:18:16;13.40;99.90
21627;DHT22;10975;47.872;12.972;2023-08-31T01:26:32;13.40;99.90
21627;DHT22;10975;47.872;12.972;2023-08-31T01:28:58;13.50;99.90
21627;DHT22;10975;47.872;12.972;2023-08-31T01:31:25;13.50;99.90
21627;DHT22;10975;47.872;12.972;2023-08-31T01:33:53;13.50;99.90
21627;DHT22;10975;47.872;12.972;2023-08-31T01:36:23;13.50;99.90
21627;DHT22;10975;47.872;12.972;2023-08-31T01:38:53;13.50;99.90
21627;DHT22;10975;47.872;12.972;2023-08-31T01:41:24;13.50;99.90
21627;DHT22;10975;47.872;12.972;2023-08-31T01:43:55;13.50;99.90
21627;DHT22;10975;47.872;12.972;2023-08-31T01:46:23;13.50;99.90
21627;DHT22;10975;47.872;12.972;2023-08-31T01:48:50;13.50;99.90
21627;DHT22;10975;47.872;12.972;2023-08-31T01:51:16;13.50;99.90
21627;DHT22;10975;47.872;12.972;2023-08-31T01:53:43;13.40;99.90
21627;DHT22;10975;47.872;12.972;2023-08-31T01:56:11;13.40;99.90
21627;DHT22;10975;47.872;12.972;2023-08-31T01:58:37;13.40;99.90
21627;DHT22;10975;47.872;12.972;2023-08-31T02:01:04;13.40;99.90
21627;DHT22;10975;47.872;12.972;2023-08-31T02:03:31;13.50;99.90
21627;DHT22;10975;47.872;12.972;2023-08-31T02:05:58;13.40;99.90
21627;DHT22;10975;47.872;12.972;2023-08-31T02:08:25;13.50;99.90
21627;DHT22;10975;47.872;12.972;2023-08-31T02:10:51;13.50;99.90
21627;DHT22;10975;47.872;12.972;2023-08-31T02:13:20;13.60;99.90
21627;DHT22;10975;47.872;12.972;2023-08-31T02:15:46;13.60;99.90
21627;DHT22;10975;47.872;12.972;2023-08-31T02:18:17;13.60;99.90
21627;DHT22;10975;47.872;12.972;2023-08-31T02:20:44;13.60;99.90
21627;DHT22;10975;47.872;12.972;2023-08-31T02:23:10;13.60;99.90
21627;DHT22;10975;47.872;12.972;2023-08-31T02:25:39;13.60;99.90
21627;DHT22;10975;47.872;12.972;2023-08-31T02:28:05;13.50;99.90
21627;DHT22;10975;47.872;12.972;2023-08-31T02:30:32;13.50;99.90
21627;DHT22;10975;47.872;12.972;2023-08-31T02:32:59;13.50;99.90
21627;DHT22;10975;47.872;12.972;2023-08-31T02:35:25;13.40;99.90
21627;DHT22;10975;47.872;12.972;2023-08-31T02:37:52;13.40;99.90
21627;DHT22;10975;47.872;12.972;2023-08-31T02:40:19;13.30;99.90
21627;DHT22;10975;47.872;12.972;2023-08-31T02:42:50;13.30;99.90
21627;DHT22;10975;47.872;12.972;2023-08-31T02:45:17;13.20;99.90
21627;DHT22;10975;47.872;12.972;2023-08-31T02:50:16;13.00;99.90
21627;DHT22;10975;47.872;12.972;2023-08-31T02:52:43;13.00;99.90
21627;DHT22;10975;47.872;12.972;2023-08-31T02:55:09;12.90;99.90
21627;DHT22;10975;47.872;12.972;2023-08-31T02:57:37;12.90;99.90
21627;DHT22;10975;47.872;12.972;2023-08-31T03:00:03;12.90;99.90
21627;DHT22;10975;47.872;12.972;2023-08-31T03:02:35;12.80;99.90
21627;DHT22;10975;47.872;12.972;2023-08-31T03:05:02;12.70;99.90
21627;DHT22;10975;47.872;12.972;2023-08-31T03:07:29;12.70;99.90
21627;DHT22;10975;47.872;12.972;2023-08-31T03:09:55;12.60;99.90
21627;DHT22;10975;47.872;12.972;2023-08-31T03:12:22;12.60;99.90
21627;DHT22;10975;47.872;12.972;2023-08-31T03:14:49;12.50;99.90
21627;DHT22;10975;47.872;12.972;2023-08-31T03:17:15;12.50;99.90
21627;DHT22;10975;47.872;12.972;2023-08-31T03:19:42;12.50;99.90
21627;DHT22;10975;47.872;12.972;2023-08-31T03:22:09;12.50;99.90
21627;DHT22;10975;47.872;12.972;2023-08-31T03:24:36;12.40;99.90
21627;DHT22;10975;47.872;12.972;2023-08-31T03:27:02;12.40;99.90
21627;DHT22;10975;47.872;12.972;2023-08-31T03:29:29;12.40;99.90
21627;DHT22;10975;47.872;12.972;2023-08-31T03:31:59;12.20;99.90
21627;DHT22;10975;47.872;12.972;2023-08-31T03:34:29;12.20;99.90
21627;DHT22;10975;47.872;12.972;2023-08-31T03:36:57;12.20;99.90
21627;DHT22;10975;47.872;12.972;2023-08-31T03:39:24;12.10;99.90
21627;DHT22;10975;47.872;12.972;2023-08-31T03:41:51;12.10;99.90
21627;DHT22;10975;47.872;12.972;2023-08-31T03:44:19;12.00;99.90
21627;DHT22;10975;47.872;12.972;2023-08-31T03:46:46;12.10;99.90
21627;DHT22;10975;47.872;12.972;2023-08-31T03:49:13;12.00;99.90
21627;DHT22;10975;47.872;12.972;2023-08-31T03:51:39;12.00;99.90
21627;DHT22;10975;47.872;12.972;2023-08-31T03:54:06;12.10;99.90
21627;DHT22;10975;47.872;12.972;2023-08-31T03:56:33;12.10;99.90
21627;DHT22;10975;47.872;12.972;2023-08-31T03:59:01;12.00;99.90
21627;DHT22;10975;47.872;12.972;2023-08-31T04:01:28;12.10;99.90
21627;DHT22;10975;47.872;12.972;2023-08-31T04:03:54;12.10;99.90
21627;DHT22;10975;47.872;12.972;2023-08-31T04:06:21;12.10;99.90
21627;DHT22;10975;47.872;12.972;2023-08-31T04:08:48;12.20;99.90
21627;DHT22;10975;47.872;12.972;2023-08-31T04:11:14;12.20;99.90
21627;DHT22;10975;47.872;12.972;2023-08-31T04:13:41;12.30;99.90
21627;DHT22;10975;47.872;12.972;2023-08-31T04:16:08;12.30;99.90
21627;DHT22;10975;47.872;12.972;2023-08-31T04:18:35;12.40;99.90
21627;DHT22;10975;47.872;12.972;2023-08-31T04:21:02;12.40;99.90
21627;DHT22;10975;47.872;12.972;2023-08-31T04:23:30;12.40;99.90
21627;DHT22;10975;47.872;12.972;2023-08-31T04:25:56;12.50;99.90
21627;DHT22;10975;47.872;12.972;2023-08-31T04:28:24;12.50;99.90
21627;DHT22;10975;47.872;12.972;2023-08-31T04:30:51;12.60;99.90
21627;DHT22;10975;47.872;12.972;2023-08-31T04:33:17;12.50;99.90
21627;DHT22;10975;47.872;12.972;2023-08-31T04:35:44;12.80;99.90
21627;DHT22;10975;47.872;12.972;2023-08-31T04:38:11;12.90;99.90
21627;DHT22;10975;47.872;12.972;2023-08-31T04:40:38;12.80;99.90
21627;DHT22;10975;47.872;12.972;2023-08-31T04:43:04;12.70;99.90
21627;DHT22;10975;47.872;12.972;2023-08-31T04:45:31;12.60;99.90
21627;DHT22;10975;47.872;12.972;2023-08-31T04:47:58;12.50;99.90
21627;DHT22;10975;47.872;12.972;2023-08-31T04:50:25;12.50;99.90
21627;DHT22;10975;47.872;12.972;2023-08-31T04:52:52;12.50;99.90
21627;DHT22;10975;47.872;12.972;2023-08-31T04:55:20;12.50;99.90
21627;DHT22;10975;47.872;12.972;2023-08-31T04:57:47;12.50;99.90
21627;DHT22;10975;47.872;12.972;2023-08-31T05:00:14;12.60;99.90
21627;DHT22;10975;47.872;12.972;2023-08-31T05:02:41;15.30;99.90
21627;DHT22;10975;47.872;12.972;2023-08-31T05:05:08;10.20;99.90
21627;DHT22;10975;47.872;12.972;2023-08-31T05:07:34;9.70;99.90
21627;DHT22;10975;47.872;12.972;2023-08-31T05:10:01;9.70;99.90
21627;DHT22;10975;47.872;12.972;2023-08-31T05:12:28;13.70;99.90
21627;DHT22;10975;47.872;12.972;2023-08-31T05:14:55;14.30;99.90
21627;DHT22;10975;47.872;12.972;2023-08-31T05:17:22;8.70;99.90
21627;DHT22;10975;47.872;12.972;2023-08-31T05:19:48;8.90;99.90
21627;DHT22;10975;47.872;12.972;2023-08-31T05:22:16;16.90;99.90
21627;DHT22;10975;47.872;12.972;2023-08-31T05:24:44;15.10;99.90
21627;DHT22;10975;47.872;12.972;2023-08-31T05:27:10;14.20;99.90
21627;DHT22;10975;47.872;12.972;2023-08-31T05:29:37;9.30;99.90
21627;DHT22;10975;47.872;12.972;2023-08-31T05:32:04;9.40;99.90
21627;DHT22;10975;47.872;12.972;2023-08-31T05:34:31;8.70;99.90
21627;DHT22;10975;47.872;12.972;2023-08-31T05:37:01;16.80;99.90
21627;DHT22;10975;47.872;12.972;2023-08-31T05:39:28;9.30;99.90
21627;DHT22;10975;47.872;12.972;2023-08-31T05:41:54;17.10;99.90
21627;DHT22;10975;47.872;12.972;2023-08-31T05:44:21;9.60;99.90
21627;DHT22;10975;47.872;12.972;2023-08-31T05:46:48;10.80;99.90
21627;DHT22;10975;47.872;12.972;2023-08-31T05:49:15;14.50;99.90
21627;DHT22;10975;47.872;12.972;2023-08-31T05:51:42;14.00;99.90
21627;DHT22;10975;47.872;12.972;2023-08-31T05:54:08;17.50;99.90
21627;DHT22;10975;47.872;12.972;2023-08-31T05:56:38;9.40;99.90
21627;DHT22;10975;47.872;12.972;2023-08-31T05:59:06;17.10;99.90
21627;DHT22;10975;47.872;12.972;2023-08-31T06:01:34;17.20;99.90
21627;DHT22;10975;47.872;12.972;2023-08-31T06:04:01;9.20;99.90
21627;DHT22;10975;47.872;12.972;2023-08-31T06:06:27;9.30;99.90
21627;DHT22;10975;47.872;12.972;2023-08-31T06:08:54;11.60;99.90
21627;DHT22;10975;47.872;12.972;2023-08-31T06:14:24;13.50;99.90
21627;DHT22;10975;47.872;12.972;2023-08-31T06:16:50;9.30;99.90
21627;DHT22;10975;47.872;12.972;2023-08-31T06:19:19;10.90;99.90
21627;DHT22;10975;47.872;12.972;2023-08-31T06:21:45;12.10;99.90
21627;DHT22;10975;47.872;12.972;2023-08-31T06:24:12;13.80;99.90
21627;DHT22;10975;47.872;12.972;2023-08-31T06:26:39;15.80;99.90
21627;DHT22;10975;47.872;12.972;2023-08-31T06:29:06;10.30;99.90
21627;DHT22;10975;47.872;12.972;2023-08-31T06:31:34;18.50;99.90
21627;DHT22;10975;47.872;12.972;2023-08-31T06:34:01;8.90;99.90
21627;DHT22;10975;47.872;12.972;2023-08-31T06:36:28;17.80;99.90
21627;DHT22;10975;47.872;12.972;2023-08-31T06:38:55;10.70;99.90
21627;DHT22;10975;47.872;12.972;2023-08-31T06:41:22;18.70;99.90
21627;DHT22;10975;47.872;12.972;2023-08-31T06:43:49;18.60;99.90
21627;DHT22;10975;47.872;12.972;2023-08-31T06:46:15;9.20;99.90
21627;DHT22;10975;47.872;12.972;2023-08-31T06:48:50;17.50;99.90
21627;DHT22;10975;47.872;12.972;2023-08-31T06:51:17;13.80;99.90
21627;DHT22;10975;47.872;12.972;2023-08-31T06:53:43;18.50;99.90
21627;DHT22;10975;47.872;12.972;2023-08-31T06:56:11;12.90;99.90
21627;DHT22;10975;47.872;12.972;2023-08-31T06:58:37;11.50;99.90
21627;DHT22;10975;47.872;12.972;2023-08-31T07:03:55;11.20;99.90
21627;DHT22;10975;47.872;12.972;2023-08-31T07:06:22;12.60;99.90
21627;DHT22;10975;47.872;12.972;2023-08-31T07:08:49;19.90;99.90
21627;DHT22;10975;47.872;12.972;2023-08-31T07:11:23;18.70;99.90
21627;DHT22;10975;47.872;12.972;2023-08-31T07:13:49;19.90;99.90
21627;DHT22;10975;47.872;12.972;2023-08-31T07:16:17;17.90;99.90
21627;DHT22;10975;47.872;12.972;2023-08-31T07:18:44;13.10;99.90
21627;DHT22;10975;47.872;12.972;2023-08-31T07:21:11;13.70;99.90
21627;DHT22;10975;47.872;12.972;2023-08-31T07:23:54;10.60;99.90
21627;DHT22;10975;47.872;12.972;2023-08-31T07:26:21;16.10;99.90
21627;DHT22;10975;47.872;12.972;2023-08-31T07:28:48;19.40;99.90
21627;DHT22;10975;47.872;12.972;2023-08-31T07:31:15;20.10;99.90
21627;DHT22;10975;47.872;12.972;2023-08-31T07:33:43;17.30;99.90
21627;DHT22;10975;47.872;12.972;2023-08-31T07:36:10;10.60;99.90
21627;DHT22;10975;47.872;12.972;2023-08-31T07:38:36;16.20;99.90
21627;DHT22;10975;47.872;12.972;2023-08-31T07:41:03;19.50;99.90
21627;DHT22;10975;47.872;12.972;2023-08-31T07:43:31;19.60;99.90
21627;DHT22;10975;47.872;12.972;2023-08-31T07:45:57;13.10;99.90
21627;DHT22;10975;47.872;12.972;2023-08-31T07:48:24;18.00;99.90
21627;DHT22;10975;47.872;12.972;2023-08-31T07:50:51;18.60;99.90
21627;DHT22;10975;47.872;12.972;2023-08-31T07:53:18;17.80;99.90
21627;DHT22;10975;47.872;12.972;2023-08-31T07:55:54;12.10;99.90
21627;DHT22;10975;47.872;12.972;2023-08-31T07:58:24;15.90;99.90
21627;DHT22;10975;47.872;12.972;2023-08-31T08:00:53;12.10;99.90
21627;DHT22;10975;47.872;12.972;2023-08-31T08:03:21;17.30;99.90
21627;DHT22;10975;47.872;12.972;2023-08-31T08:05:49;17.30;99.90
21627;DHT22;10975;47.872;12.972;2023-08-31T08:08:15;18.00;99.90
21627;DHT22;10975;47.872;12.972;2023-08-31T08:10:42;13.60;99.90
21627;DHT22;10975;47.872;12.972;2023-08-31T08:13:09;17.60;99.90
21627;DHT22;10975;47.872;12.972;2023-08-31T08:15:37;16.80;99.90
21627;DHT22;10975;47.872;12.972;2023-08-31T08:18:06;17.00;99.90
21627;DHT22;10975;47.872;12.972;2023-08-31T08:20:36;15.70;99.90
21627;DHT22;10975;47.872;12.972;2023-08-31T08:23:02;13.80;99.90
21627;DHT22;10975;47.872;12.972;2023-08-31T08:25:32;16.20;99.90
21627;DHT22;10975;47.872;12.972;2023-08-31T08:28:01;16.20;99.90
21627;DHT22;10975;47.872;12.972;2023-08-31T08:30:31;14.10;99.90
21627;DHT22;10975;47.872;12.972;2023-08-31T08:32:59;16.50;99.90
21627;DHT22;10975;47.872;12.972;2023-08-31T08:35:27;15.80;99.90
21627;DHT22;10975;47.872;12.972;2023-08-31T08:37:56;16.50;99.90
21627;DHT22;10975;47.872;12.972;2023-08-31T08:40:25;15.60;99.90
21627;DHT22;10975;47.872;12.972;2023-08-31T08:42:54;16.30;99.90
21627;DHT22;10975;47.872;12.972;2023-08-31T08:45:24;15.40;99.90
21627;DHT22;10975;47.872;12.972;2023-08-31T08:51:10;16.10;99.90
21627;DHT22;10975;47.872;12.972;2023-08-31T08:53:37;16.00;99.90
21627;DHT22;10975;47.872;12.972;2023-08-31T08:56:05;15.30;99.90
21627;DHT22;10975;47.872;12.972;2023-08-31T08:58:31;15.30;99.90
21627;DHT22;10975;47.872;12.972;2023-08-31T09:00:58;14.40;99.90
21627;DHT22;10975;47.872;12.972;2023-08-31T09:03:25;14.20;99.90
21627;DHT22;10975;47.872;12.972;2023-08-31T09:05:51;15.60;99.90
21627;DHT22;10975;47.872;12.972;2023-08-31T09:08:25;15.20;99.90
21627;DHT22;10975;47.872;12.972;2023-08-31T09:10:51;15.20;99.90
21627;DHT22;10975;47.872;12.972;2023-08-31T09:13:19;15.50;99.90
21627;DHT22;10975;47.872;12.972;2023-08-31T09:15:47;14.80;99.90
21627;DHT22;10975;47.872;12.972;2023-08-31T09:18:14;15.30;99.90
21627;DHT22;10975;47.872;12.972;2023-08-31T09:20:42;15.30;99.90
21627;DHT22;10975;47.872;12.972;2023-08-31T09:23:09;15.30;99.90
21627;DHT22;10975;47.872;12.972;2023-08-31T09:25:46;15.40;99.90
21627;DHT22;10975;47.872;12.972;2023-08-31T09:28:16;15.30;99.90
21627;DHT22;10975;47.872;12.972;2023-08-31T09:30:46;15.30;99.90
21627;DHT22;10975;47.872;12.972;2023-08-31T09:33:16;15.40;99.90
21627;DHT22;10975;47.872;12.972;2023-08-31T09:35:47;15.40;99.90
21627;DHT22;10975;47.872;12.972;2023-08-31T09:38:20;15.40;99.90
21627;DHT22;10975;47.872;12.972;2023-08-31T09:40:47;15.40;99.90
21627;DHT22;10975;47.872;12.972;2023-08-31T09:43:25;15.40;99.90
21627;DHT22;10975;47.872;12.972;2023-08-31T09:45:52;15.40;99.90
21627;DHT22;10975;47.872;12.972;2023-08-31T09:48:21;15.40;99.90
21627;DHT22;10975;47.872;12.972;2023-08-31T09:50:49;15.40;99.90
21627;DHT22;10975;47.872;12.972;2023-08-31T09:53:23;15.40;99.90
21627;DHT22;10975;47.872;12.972;2023-08-31T09:58:27;15.50;99.90
21627;DHT22;10975;47.872;12.972;2023-08-31T10:00:59;15.60;99.90
21627;DHT22;10975;47.872;12.972;2023-08-31T10:03:27;15.80;99.90
21627;DHT22;10975;47.872;12.972;2023-08-31T10:06:13;15.80;99.90
21627;DHT22;10975;47.872;12.972;2023-08-31T10:08:43;15.90;99.90
21627;DHT22;10975;47.872;12.972;2023-08-31T10:11:14;16.00;99.90
21627;DHT22;10975;47.872;12.972;2023-08-31T10:13:42;16.10;99.90
21627;DHT22;10975;47.872;12.972;2023-08-31T10:16:10;16.20;99.90
21627;DHT22;10975;47.872;12.972;2023-08-31T10:18:41;16.30;99.90
21627;DHT22;10975;47.872;12.972;2023-08-31T10:21:11;16.50;99.90
21627;DHT22;10975;47.872;12.972;2023-08-31T10:23:45;16.60;99.90
21627;DHT22;10975;47.872;12.972;2023-08-31T10:26:23;16.60;99.90
21627;DHT22;10975;47.872;12.972;2023-08-31T10:28:54;16.60;99.90
21627;DHT22;10975;47.872;12.972;2023-08-31T10:31:23;16.50;99.90
21627;DHT22;10975;47.872;12.972;2023-08-31T10:33:56;16.50;99.90
21627;DHT22;10975;47.872;12.972;2023-08-31T10:36:40;16.60;99.90
21627;DHT22;10975;47.872;12.972;2023-08-31T10:39:12;16.60;99.90
21627;DHT22;10975;47.872;12.972;2023-08-31T10:41:40;16.70;99.90
21627;DHT22;10975;47.872;12.972;2023-08-31T10:44:18;16.70;99.90
21627;DHT22;10975;47.872;12.972;2023-08-31T10:46:49;16.90;99.90
21627;DHT22;10975;47.872;12.972;2023-08-31T10:49:21;17.30;99.90
21627;DHT22;10975;47.872;12.972;2023-08-31T10:51:57;17.30;99.90
21627;DHT22;10975;47.872;12.972;2023-08-31T10:54:31;17.40;99.90
21627;DHT22;10975;47.872;12.972;2023-08-31T10:57:04;17.50;99.90
21627;DHT22;10975;47.872;12.972;2023-08-31T10:59:45;17.50;99.90
21627;DHT22;10975;47.872;12.972;2023-08-31T11:02:29;17.60;99.90
21627;DHT22;10975;47.872;12.972;2023-08-31T11:05:07;17.60;99.90
21627;DHT22;10975;47.872;12.972;2023-08-31T11:07:50;17.40;99.90
21627;DHT22;10975;47.872;12.972;2023-08-31T11:10:21;17.40;99.90
21627;DHT22;10975;47.872;12.972;2023-08-31T11:12:55;17.40;99.90
21627;DHT22;10975;47.872;12.972;2023-08-31T11:15:28;17.50;99.90
21627;DHT22;10975;47.872;12.972;2023-08-31T11:17:59;17.60;99.90
21627;DHT22;10975;47.872;12.972;2023-08-31T11:20:26;17.60;99.90
21627;DHT22;10975;47.872;12.972;2023-08-31T11:22:55;17.70;99.90
21627;DHT22;10975;47.872;12.972;2023-08-31T11:25:23;17.80;99.90
21627;DHT22;10975;47.872;12.972;2023-08-31T11:27:55;17.90;99.90
21627;DHT22;10975;47.872;12.972;2023-08-31T11:30:22;18.00;99.90
21627;DHT22;10975;47.872;12.972;2023-08-31T11:32:52;18.10;99.90
21627;DHT22;10975;47.872;12.972;2023-08-31T11:35:22;18.20;99.90
21627;DHT22;10975;47.872;12.972;2023-08-31T11:37:51;18.30;99.90
21627;DHT22;10975;47.872;12.972;2023-08-31T11:40:18;18.40;99.90
21627;DHT22;10975;47.872;12.972;2023-08-31T11:42:45;18.50;99.90
21627;DHT22;10975;47.872;12.972;2023-08-31T11:45:12;18.60;99.90
21627;DHT22;10975;47.872;12.972;2023-08-31T11:47:41;18.60;99.90
21627;DHT22;10975;47.872;12.972;2023-08-31T11:50:08;18.50;99.90
21627;DHT22;10975;47.872;12.972;2023-08-31T11:52:34;18.40;99.90
21627;DHT22;10975;47.872;12.972;2023-08-31T11:55:02;18.40;99.90
21627;DHT22;10975;47.872;12.972;2023-08-31T11:57:29;18.40;99.90
21627;DHT22;10975;47.872;12.972;2023-08-31T11:59:56;18.30;99.90
21627;DHT22;10975;47.872;12.972;2023-08-31T12:02:23;18.30;99.90
21627;DHT22;10975;47.872;12.972;2023-08-31T12:04:50;18.30;99.90
21627;DHT22;10975;47.872;12.972;2023-08-31T12:07:17;18.20;99.90
21627;DHT22;10975;47.872;12.972;2023-08-31T12:09:45;18.30;99.90
21627;DHT22;10975;47.872;12.972;2023-08-31T12:12:15;18.20;99.90
21627;DHT22;10975;47.872;12.972;2023-08-31T12:14:43;18.10;99.90
21627;DHT22;10975;47.872;12.972;2023-08-31T12:17:09;18.10;99.90
21627;DHT22;10975;47.872;12.972;2023-08-31T12:19:40;18.10;99.90
21627;DHT22;10975;47.872;12.972;2023-08-31T12:22:06;18.40;99.90
21627;DHT22;10975;47.872;12.972;2023-08-31T12:24:40;18.50;99.90
21627;DHT22;10975;47.872;12.972;2023-08-31T12:27:07;18.70;99.90
21627;DHT22;10975;47.872;12.972;2023-08-31T12:29:34;18.70;99.90
21627;DHT22;10975;47.872;12.972;2023-08-31T12:32:01;18.70;99.90
21627;DHT22;10975;47.872;12.972;2023-08-31T12:34:28;18.60;99.90
21627;DHT22;10975;47.872;12.972;2023-08-31T12:36:55;18.60;99.90
21627;DHT22;10975;47.872;12.972;2023-08-31T12:39:26;18.50;99.90
21627;DHT22;10975;47.872;12.972;2023-08-31T12:41:53;18.60;99.90
21627;DHT22;10975;47.872;12.972;2023-08-31T12:44:22;18.60;99.90
21627;DHT22;10975;47.872;12.972;2023-08-31T12:46:49;18.30;99.90
21627;DHT22;10975;47.872;12.972;2023-08-31T12:49:15;18.30;99.90
21627;DHT22;10975;47.872;12.972;2023-08-31T12:51:42;18.40;99.90
21627;DHT22;10975;47.872;12.972;2023-08-31T12:54:09;18.70;99.90
21627;DHT22;10975;47.872;12.972;2023-08-31T12:56:36;19.00;99.90
21627;DHT22;10975;47.872;12.972;2023-08-31T12:59:10;19.30;99.90
21627;DHT22;10975;47.872;12.972;2023-08-31T13:01:37;19.40;99.90
21627;DHT22;10975;47.872;12.972;2023-08-31T13:04:04;19.60;99.90
21627;DHT22;10975;47.872;12.972;2023-08-31T13:06:34;19.70;99.90
21627;DHT22;10975;47.872;12.972;2023-08-31T13:09:01;19.30;99.90
21627;DHT22;10975;47.872;12.972;2023-08-31T13:11:31;18.80;99.90
21627;DHT22;10975;47.872;12.972;2023-08-31T13:13:59;18.70;99.90
21627;DHT22;10975;47.872;12.972;2023-08-31T13:16:26;18.80;99.90
21627;DHT22;10975;47.872;12.972;2023-08-31T13:18:53;19.00;99.90
21627;DHT22;10975;47.872;12.972;2023-08-31T13:21:19;18.90;99.90
21627;DHT22;10975;47.872;12.972;2023-08-31T13:23:46;18.80;99.90
21627;DHT22;10975;47.872;12.972;2023-08-31T13:26:13;18.80;99.90
21627;DHT22;10975;47.872;12.972;2023-08-31T13:28:40;18.80;99.90
21627;DHT22;10975;47.872;12.972;2023-08-31T13:31:07;18.70;99.90
21627;DHT22;10975;47.872;12.972;2023-08-31T13:33:34;18.70;99.90
21627;DHT22;10975;47.872;12.972;2023-08-31T13:36:01;18.80;99.90
21627;DHT22;10975;47.872;12.972;2023-08-31T13:38:28;18.80;99.90
21627;DHT22;10975;47.872;12.972;2023-08-31T13:40:55;18.80;99.90
21627;DHT22;10975;47.872;12.972;2023-08-31T13:43:23;18.90;99.90
21627;DHT22;10975;47.872;12.972;2023-08-31T13:45:50;18.90;99.90
21627;DHT22;10975;47.872;12.972;2023-08-31T13:48:17;19.00;99.90
21627;DHT22;10975;47.872;12.972;2023-08-31T13:50:45;19.10;99.90
21627;DHT22;10975;47.872;12.972;2023-08-31T13:53:12;19.00;99.90
21627;DHT22;10975;47.872;12.972;2023-08-31T13:55:39;18.90;99.90
21627;DHT22;10975;47.872;12.972;2023-08-31T13:58:06;19.20;99.90
21627;DHT22;10975;47.872;12.972;2023-08-31T14:00:37;19.20;99.90
21627;DHT22;10975;47.872;12.972;2023-08-31T14:03:04;19.20;99.90
21627;DHT22;10975;47.872;12.972;2023-08-31T14:05:31;19.30;99.90
21627;DHT22;10975;47.872;12.972;2023-08-31T14:07:58;19.30;99.90
21627;DHT22;10975;47.872;12.972;2023-08-31T14:10:27;19.40;99.90
21627;DHT22;10975;47.872;12.972;2023-08-31T14:12:54;19.50;99.90
21627;DHT22;10975;47.872;12.972;2023-08-31T14:15:21;19.60;99.90
21627;DHT22;10975;47.872;12.972;2023-08-31T14:17:50;19.70;99.90
21627;DHT22;10975;47.872;12.972;2023-08-31T14:20:17;19.50;99.90
21627;DHT22;10975;47.872;12.972;2023-08-31T14:25:37;19.40;99.90
21627;DHT22;10975;47.872;12.972;2023-08-31T14:28:05;19.30;99.90
21627;DHT22;10975;47.872;12.972;2023-08-31T14:30:31;19.20;99.90
21627;DHT22;10975;47.872;12.972;2023-08-31T14:32:58;19.30;99.90
21627;DHT22;10975;47.872;12.972;2023-08-31T14:35:27;19.40;99.90
21627;DHT22;10975;47.872;12.972;2023-08-31T14:37:53;19.40;99.90
21627;DHT22;10975;47.872;12.972;2023-08-31T14:40:20;19.30;99.90
21627;DHT22;10975;47.872;12.972;2023-08-31T14:42:47;19.20;99.90
21627;DHT22;10975;47.872;12.972;2023-08-31T14:45:13;19.20;99.90
21627;DHT22;10975;47.872;12.972;2023-08-31T14:47:40;19.00;99.90
21627;DHT22;10975;47.872;12.972;2023-08-31T14:50:07;18.90;99.90
21627;DHT22;10975;47.872;12.972;2023-08-31T14:52:34;18.90;99.90
21627;DHT22;10975;47.872;12.972;2023-08-31T14:55:01;18.90;99.90
21627;DHT22;10975;47.872;12.972;2023-08-31T14:57:34;18.90;99.90
21627;DHT22;10975;47.872;12.972;2023-08-31T15:00:06;18.90;99.90
21627;DHT22;10975;47.872;12.972;2023-08-31T15:02:34;18.90;99.90
21627;DHT22;10975;47.872;12.972;2023-08-31T15:05:00;18.80;99.90
21627;DHT22;10975;47.872;12.972;2023-08-31T15:07:27;18.80;99.90
21627;DHT22;10975;47.872;12.972;2023-08-31T15:10:02;18.70;99.90
21627;DHT22;10975;47.872;12.972;2023-08-31T15:12:50;18.50;99.90
21627;DHT22;10975;47.872;12.972;2023-08-31T15:15:30;18.50;99.90
21627;DHT22;10975;47.872;12.972;2023-08-31T15:17:57;18.60;99.90
21627;DHT22;10975;47.872;12.972;2023-08-31T15:20:29;18.60;99.90
21627;DHT22;10975;47.872;12.972;2023-08-31T15:22:56;18.30;99.90
21627;DHT22;10975;47.872;12.972;2023-08-31T15:25:23;18.30;99.90
21627;DHT22;10975;47.872;12.972;2023-08-31T15:27:49;18.20;99.90
21627;DHT22;10975;47.872;12.972;2023-08-31T15:31:01;18.10;99.90
21627;DHT22;10975;47.872;12.972;2023-08-31T15:34:08;18.10;99.90
21627;DHT22;10975;47.872;12.972;2023-08-31T15:36:31;18.10;99.90
21627;DHT22;10975;47.872;12.972;2023-08-31T15:38:59;18.20;99.90
21627;DHT22;10975;47.872;12.972;2023-08-31T15:41:35;18.30;99.90
21627;DHT22;10975;47.872;12.972;2023-08-31T15:44:07;18.30;99.90
21627;DHT22;10975;47.872;12.972;2023-08-31T15:46:34;18.40;99.90
21627;DHT22;10975;47.872;12.972;2023-08-31T15:49:21;18.40;99.90
21627;DHT22;10975;47.872;12.972;2023-08-31T15:51:48;18.40;99.90